Time;durP1;ratioP1;P1;durP2;ratioP2;P2;SDS_P1;SDS_P2;PMS_P1;PMS_P2;Temp;Humidity;BMP_temperature;BMP_pressure;BME280_temperature;BME280_humidity;BME280_pressure;Samples;Min_cycle;Max_cycle;Signal;HPM_P1;HPM_P2
2023/03/29 00:02:28;;;;;;;19.30;5.37;;;;;;;;;;6211427;23;20057;-48
2023/03/29 00:05:00;;;;;;;20.40;5.60;;;;;;;;;;6223436;23;20059;-49
2023/03/29 00:07:28;;;;;;;19.27;5.32;;;;;;;;;;6215908;23;20012;-47
2023/03/29 00:09:56;;;;;;;16.77;4.88;;;;;;;;;;6220470;23;20020;-47
2023/03/29 00:12:25;;;;;;;14.48;4.78;;;;;;;;;;6218322;23;20087;-49
2023/03/29 00:14:53;;;;;;;12.23;4.63;;;;;;;;;;6216834;23;20055;-47
2023/03/29 00:17:21;;;;;;;18.38;4.97;;;;;;;;;;6218652;23;20012;-50
2023/03/29 00:19:49;;;;;;;16.67;5.35;;;;;;;;;;6223135;23;20016;-47
2023/03/29 00:22:18;;;;;;;15.98;5.05;;;;;;;;;;6222478;23;20012;-47
2023/03/29 00:24:47;;;;;;;16.42;5.00;;;;;;;;;;6203882;23;20517;-47
2023/03/29 00:27:16;;;;;;;16.37;4.67;;;;;;;;;;6223916;23;20020;-51
2023/03/29 00:29:43;;;;;;;16.65;4.78;;;;;;;;;;6213923;23;20043;-49
2023/03/29 00:32:11;;;;;;;14.70;4.97;;;;;;;;;;6221356;23;20016;-49
2023/03/29 00:34:41;;;;;;;18.58;4.90;;;;;;;;;;6211943;23;20107;-47
2023/03/29 00:37:09;;;;;;;15.40;4.78;;;;;;;;;;6224640;23;20039;-48
2023/03/29 00:39:40;;;;;;;15.23;4.60;;;;;;;;;;6212975;23;20481;-48
2023/03/29 00:42:11;;;;;;;20.00;4.88;;;;;;;;;;6221714;23;20091;-49
2023/03/29 00:45:02;;;;;;;16.35;4.35;;;;;;;;;;6212755;23;20098;-50
2023/03/29 00:47:32;;;;;;;17.05;4.40;;;;;;;;;;6216966;23;20019;-48
2023/03/29 00:50:01;;;;;;;14.70;4.32;;;;;;;;;;6222400;23;20016;-49
2023/03/29 00:52:30;;;;;;;17.23;3.83;;;;;;;;;;6219296;23;20425;-47
2023/03/29 00:55:02;;;;;;;19.55;4.65;;;;;;;;;;6222033;23;20245;-50
2023/03/29 00:57:31;;;;;;;11.30;3.90;;;;;;;;;;6220218;23;20451;-48
2023/03/29 00:59:59;;;;;;;18.38;4.55;;;;;;;;;;6221297;23;20367;-50
2023/03/29 01:02:28;;;;;;;12.55;4.22;;;;;;;;;;6214129;23;20024;-48
2023/03/29 01:05:00;;;;;;;14.53;4.57;;;;;;;;;;6223113;23;20514;-48
2023/03/29 01:07:29;;;;;;;16.02;4.68;;;;;;;;;;6217895;22;20059;-46
2023/03/29 01:10:00;;;;;;;14.82;3.97;;;;;;;;;;6216379;22;20016;-47
2023/03/29 01:12:31;;;;;;;16.15;3.67;;;;;;;;;;6215117;23;20107;-50
2023/03/29 01:15:03;;;;;;;16.58;3.58;;;;;;;;;;6218550;23;20012;-48
2023/03/29 01:17:31;;;;;;;18.77;3.83;;;;;;;;;;6218376;23;20019;-48
2023/03/29 01:20:06;;;;;;;15.63;3.75;;;;;;;;;;6218424;23;20022;-48
2023/03/29 01:22:39;;;;;;;17.75;4.20;;;;;;;;;;6223206;23;20455;-47
2023/03/29 01:25:10;;;;;;;13.77;3.28;;;;;;;;;;6221045;23;20051;-49
2023/03/29 01:27:51;;;;;;;17.00;3.97;;;;;;;;;;6213173;23;20012;-49
2023/03/29 01:30:21;;;;;;;15.07;3.97;;;;;;;;;;6209661;23;20019;-49
2023/03/29 01:32:51;;;;;;;14.45;3.35;;;;;;;;;;6222205;23;20071;-47
2023/03/29 01:35:24;;;;;;;10.50;2.95;;;;;;;;;;6218415;23;20016;-51
2023/03/29 01:37:55;;;;;;;13.23;3.28;;;;;;;;;;6217076;23;20101;-47
2023/03/29 01:40:25;;;;;;;11.90;3.42;;;;;;;;;;6221462;23;20013;-47
2023/03/29 01:42:57;;;;;;;11.80;3.40;;;;;;;;;;6220898;23;20019;-47
2023/03/29 01:45:29;;;;;;;16.88;3.50;;;;;;;;;;6217884;23;20328;-48
2023/03/29 01:47:59;;;;;;;15.70;3.30;;;;;;;;;;6217851;23;20040;-48
2023/03/29 01:50:33;;;;;;;15.35;3.05;;;;;;;;;;6221603;23;20621;-49
2023/03/29 01:53:03;;;;;;;15.07;3.83;;;;;;;;;;6213370;23;20087;-48
2023/03/29 01:55:32;;;;;;;17.73;3.67;;;;;;;;;;6218348;23;20035;-49
2023/03/29 01:58:03;;;;;;;10.05;2.67;;;;;;;;;;6218052;23;20058;-49
2023/03/29 02:00:32;;;;;;;15.40;3.40;;;;;;;;;;6218258;23;20036;-49
2023/03/29 02:03:03;;;;;;;15.77;3.70;;;;;;;;;;6222909;23;20062;-47
2023/03/29 02:05:31;;;;;;;11.60;3.00;;;;;;;;;;6215310;23;20016;-47
2023/03/29 02:08:00;;;;;;;14.67;2.80;;;;;;;;;;6222874;23;20104;-47
2023/03/29 02:10:27;;;;;;;15.65;3.30;;;;;;;;;;6214286;23;20016;-48
2023/03/29 02:12:55;;;;;;;10.02;3.17;;;;;;;;;;6220926;23;20062;-48
2023/03/29 02:15:24;;;;;;;13.32;3.25;;;;;;;;;;6200945;23;20494;-49
2023/03/29 02:17:53;;;;;;;12.80;3.72;;;;;;;;;;6219596;23;20017;-46
2023/03/29 02:20:23;;;;;;;13.50;3.13;;;;;;;;;;6223089;23;20062;-48
2023/03/29 02:22:54;;;;;;;14.18;3.03;;;;;;;;;;6211776;23;20453;-48
2023/03/29 02:25:23;;;;;;;12.63;2.85;;;;;;;;;;6217602;23;20020;-53
2023/03/29 02:27:51;;;;;;;12.70;2.58;;;;;;;;;;6217881;23;20050;-47
2023/03/29 02:30:20;;;;;;;17.20;2.97;;;;;;;;;;6220691;23;20106;-47
2023/03/29 02:32:52;;;;;;;16.17;2.80;;;;;;;;;;6219998;23;20047;-47
2023/03/29 02:35:22;;;;;;;13.77;2.58;;;;;;;;;;6210641;23;20098;-47
2023/03/29 02:37:53;;;;;;;13.25;2.78;;;;;;;;;;6215830;23;20020;-47
2023/03/29 02:40:21;;;;;;;8.05;1.70;;;;;;;;;;6217200;23;20012;-47
2023/03/29 02:42:49;;;;;;;11.70;2.00;;;;;;;;;;6222719;23;20073;-46
2023/03/29 02:45:18;;;;;;;7.40;2.00;;;;;;;;;;6214845;22;20455;-48
2023/03/29 02:47:48;;;;;;;14.02;2.17;;;;;;;;;;6214510;22;20019;-46
2023/03/29 02:50:17;;;;;;;10.82;1.95;;;;;;;;;;6216901;23;20050;-49
2023/03/29 02:52:51;;;;;;;12.63;2.30;;;;;;;;;;6218952;23;20012;-49
2023/03/29 02:55:19;;;;;;;9.70;1.65;;;;;;;;;;6216913;23;20066;-47
2023/03/29 02:57:46;;;;;;;10.53;2.00;;;;;;;;;;6218193;23;20016;-49
2023/03/29 03:00:18;;;;;;;9.02;1.50;;;;;;;;;;6218655;23;20380;-49
2023/03/29 03:02:47;;;;;;;8.88;1.85;;;;;;;;;;6215360;23;20482;-49
2023/03/29 03:05:15;;;;;;;11.13;1.65;;;;;;;;;;6205492;23;20027;-48
2023/03/29 03:07:45;;;;;;;7.03;1.58;;;;;;;;;;6212456;23;20394;-48
2023/03/29 03:10:12;;;;;;;8.47;1.30;;;;;;;;;;6216529;23;20031;-47
2023/03/29 03:12:40;;;;;;;8.68;2.17;;;;;;;;;;6216947;23;20535;-46
2023/03/29 03:15:08;;;;;;;9.68;2.47;;;;;;;;;;6212795;23;20091;-48
2023/03/29 03:17:38;;;;;;;7.25;1.52;;;;;;;;;;6221822;23;20290;-47
2023/03/29 03:20:11;;;;;;;11.35;2.15;;;;;;;;;;6217581;23;20094;-47
2023/03/29 03:22:39;;;;;;;8.97;2.00;;;;;;;;;;6205367;23;20022;-48
2023/03/29 03:25:13;;;;;;;11.98;1.65;;;;;;;;;;6214898;22;20095;-46
2023/03/29 03:27:41;;;;;;;9.48;1.65;;;;;;;;;;6220163;23;20451;-46
2023/03/29 03:30:09;;;;;;;8.85;1.85;;;;;;;;;;6221534;23;20023;-47
2023/03/29 03:32:37;;;;;;;11.45;2.65;;;;;;;;;;6212060;23;20074;-47
2023/03/29 03:35:06;;;;;;;9.77;1.80;;;;;;;;;;6222887;23;20333;-47
2023/03/29 03:37:34;;;;;;;12.30;2.35;;;;;;;;;;6213059;23;20058;-46
2023/03/29 03:40:04;;;;;;;8.18;1.70;;;;;;;;;;6217434;23;20043;-47
2023/03/29 03:42:33;;;;;;;11.05;1.80;;;;;;;;;;6224253;23;20098;-47
2023/03/29 03:45:00;;;;;;;7.93;1.65;;;;;;;;;;6218704;23;20020;-48
2023/03/29 03:47:28;;;;;;;9.97;1.80;;;;;;;;;;6200768;23;20281;-47
2023/03/29 03:49:56;;;;;;;10.93;1.90;;;;;;;;;;6223260;23;20493;-47
2023/03/29 03:52:24;;;;;;;8.93;1.90;;;;;;;;;;6222800;23;20040;-49
2023/03/29 03:54:51;;;;;;;9.70;2.00;;;;;;;;;;6214725;23;20012;-48
2023/03/29 03:57:19;;;;;;;7.65;2.20;;;;;;;;;;6222856;23;20505;-47
2023/03/29 03:59:48;;;;;;;8.17;1.97;;;;;;;;;;6214373;23;20020;-49
2023/03/29 04:02:16;;;;;;;10.55;2.00;;;;;;;;;;6217772;23;20032;-48
2023/03/29 04:04:45;;;;;;;9.00;2.28;;;;;;;;;;6223264;23;20089;-49
2023/03/29 04:07:13;;;;;;;10.07;2.00;;;;;;;;;;6221576;23;20051;-50
2023/03/29 04:09:41;;;;;;;8.38;2.30;;;;;;;;;;6221872;23;20019;-47
2023/03/29 04:12:10;;;;;;;7.13;1.60;;;;;;;;;;6221679;23;20091;-47
2023/03/29 04:14:41;;;;;;;10.73;2.17;;;;;;;;;;6223726;23;20040;-49
2023/03/29 04:17:10;;;;;;;7.70;1.92;;;;;;;;;;6225902;23;20070;-49
2023/03/29 04:19:38;;;;;;;10.27;2.58;;;;;;;;;;6214008;23;20155;-49
2023/03/29 04:22:05;;;;;;;11.18;2.33;;;;;;;;;;6218845;23;20032;-49
2023/03/29 04:24:33;;;;;;;8.07;2.07;;;;;;;;;;6218976;23;20043;-49
2023/03/29 04:27:00;;;;;;;6.43;1.52;;;;;;;;;;6225336;23;20042;-48
2023/03/29 04:29:28;;;;;;;8.75;2.15;;;;;;;;;;6203747;23;20095;-49
2023/03/29 04:31:56;;;;;;;9.48;2.25;;;;;;;;;;6221511;23;20509;-47
2023/03/29 04:34:25;;;;;;;10.07;2.05;;;;;;;;;;6220139;23;20091;-49
2023/03/29 04:36:53;;;;;;;9.40;1.90;;;;;;;;;;6225088;23;20016;-48
2023/03/29 04:39:21;;;;;;;10.25;1.45;;;;;;;;;;6217083;23;20039;-47
2023/03/29 04:41:48;;;;;;;7.35;1.90;;;;;;;;;;6224533;23;20021;-46
2023/03/29 04:44:16;;;;;;;8.73;1.58;;;;;;;;;;6220237;22;20498;-47
2023/03/29 04:46:44;;;;;;;8.43;1.92;;;;;;;;;;6216270;23;20055;-48
2023/03/29 04:49:12;;;;;;;8.93;2.33;;;;;;;;;;6218877;23;20024;-47
2023/03/29 04:51:41;;;;;;;5.55;1.42;;;;;;;;;;6213994;23;20058;-47
2023/03/29 04:54:08;;;;;;;8.40;2.22;;;;;;;;;;6221602;23;20459;-46
2023/03/29 04:56:36;;;;;;;8.30;1.95;;;;;;;;;;6218516;23;20083;-50
2023/03/29 04:59:04;;;;;;;9.07;2.20;;;;;;;;;;6220476;23;20043;-49
2023/03/29 05:01:32;;;;;;;9.57;1.90;;;;;;;;;;6218517;23;20043;-48
2023/03/29 05:04:00;;;;;;;7.00;2.03;;;;;;;;;;6219843;23;20016;-46
2023/03/29 05:06:28;;;;;;;7.32;1.77;;;;;;;;;;6216461;23;20019;-48
2023/03/29 05:08:57;;;;;;;9.30;2.15;;;;;;;;;;6220915;23;20504;-46
2023/03/29 05:11:26;;;;;;;7.47;1.23;;;;;;;;;;6213554;23;20066;-49
2023/03/29 05:13:54;;;;;;;9.37;1.50;;;;;;;;;;6218397;23;20439;-47
2023/03/29 05:16:25;;;;;;;6.55;1.65;;;;;;;;;;6221751;23;20016;-49
2023/03/29 05:18:54;;;;;;;12.32;2.28;;;;;;;;;;6221718;23;20066;-48
2023/03/29 05:21:22;;;;;;;7.70;1.95;;;;;;;;;;6205774;23;20716;-45
2023/03/29 05:23:51;;;;;;;8.05;1.67;;;;;;;;;;6219433;23;20210;-49
2023/03/29 05:26:21;;;;;;;6.97;1.67;;;;;;;;;;6216189;23;20020;-46
2023/03/29 05:28:48;;;;;;;6.68;1.70;;;;;;;;;;6213482;23;20016;-46
2023/03/29 05:31:16;;;;;;;9.05;2.10;;;;;;;;;;6222954;23;20020;-46
2023/03/29 05:33:44;;;;;;;8.85;2.17;;;;;;;;;;6214676;23;20645;-49
2023/03/29 05:36:13;;;;;;;6.85;1.45;;;;;;;;;;6221036;23;20040;-47
2023/03/29 05:38:43;;;;;;;14.93;1.80;;;;;;;;;;6219372;23;20023;-46
2023/03/29 05:41:11;;;;;;;10.55;2.22;;;;;;;;;;6217000;23;20012;-47
2023/03/29 05:43:40;;;;;;;10.65;1.92;;;;;;;;;;6220970;23;20020;-46
2023/03/29 05:46:08;;;;;;;10.75;1.52;;;;;;;;;;6210954;22;20016;-46
2023/03/29 05:48:36;;;;;;;7.15;1.92;;;;;;;;;;6225042;22;20026;-46
2023/03/29 05:51:04;;;;;;;9.33;1.83;;;;;;;;;;6214305;23;20202;-47
2023/03/29 05:53:32;;;;;;;7.88;1.90;;;;;;;;;;6219698;23;20016;-46
2023/03/29 05:55:59;;;;;;;11.63;2.28;;;;;;;;;;6215970;22;20020;-46
2023/03/29 05:58:27;;;;;;;10.48;2.00;;;;;;;;;;6218115;23;20043;-48
2023/03/29 06:00:59;;;;;;;8.30;2.03;;;;;;;;;;6218719;23;20062;-47
2023/03/29 06:03:27;;;;;;;8.17;1.70;;;;;;;;;;6208104;23;20078;-45
2023/03/29 06:05:56;;;;;;;6.88;1.40;;;;;;;;;;6216653;23;20211;-46
2023/03/29 06:08:24;;;;;;;8.43;1.73;;;;;;;;;;6210430;23;20016;-46
2023/03/29 06:10:57;;;;;;;11.60;2.10;;;;;;;;;;6217549;23;20060;-51
2023/03/29 06:13:27;;;;;;;12.57;1.88;;;;;;;;;;6211697;23;20103;-48
2023/03/29 06:15:54;;;;;;;6.33;1.60;;;;;;;;;;6218552;23;20039;-48
2023/03/29 06:18:23;;;;;;;7.00;2.00;;;;;;;;;;6206257;23;20040;-46
2023/03/29 06:20:51;;;;;;;7.88;1.75;;;;;;;;;;6216133;22;20419;-49
2023/03/29 06:23:20;;;;;;;6.97;1.50;;;;;;;;;;6212517;23;20091;-46
2023/03/29 06:25:50;;;;;;;11.70;2.35;;;;;;;;;;6219272;23;20024;-49
2023/03/29 06:28:18;;;;;;;9.57;2.47;;;;;;;;;;6214375;23;20406;-47
2023/03/29 06:30:46;;;;;;;12.80;1.92;;;;;;;;;;6211312;23;20118;-45
2023/03/29 06:33:14;;;;;;;9.85;1.85;;;;;;;;;;6216088;23;20452;-47
2023/03/29 06:35:45;;;;;;;10.00;2.13;;;;;;;;;;6215074;23;20016;-46
2023/03/29 06:38:13;;;;;;;11.45;2.13;;;;;;;;;;6213196;23;20090;-45
2023/03/29 06:40:43;;;;;;;14.20;2.53;;;;;;;;;;6219870;23;20015;-46
2023/03/29 06:43:11;;;;;;;12.75;1.98;;;;;;;;;;6213380;22;20055;-48
2023/03/29 06:45:40;;;;;;;13.15;2.40;;;;;;;;;;6214278;23;20043;-48
2023/03/29 06:48:07;;;;;;;13.02;2.80;;;;;;;;;;6222854;23;20051;-47
2023/03/29 06:50:35;;;;;;;9.82;2.33;;;;;;;;;;6215168;23;20346;-48
2023/03/29 06:53:04;;;;;;;10.77;2.17;;;;;;;;;;6216470;23;20530;-48
2023/03/29 06:55:32;;;;;;;10.00;2.10;;;;;;;;;;6220805;23;20019;-46
2023/03/29 06:57:59;;;;;;;13.07;2.65;;;;;;;;;;6222387;23;20466;-47
2023/03/29 07:00:29;;;;;;;9.05;1.80;;;;;;;;;;6218554;23;20016;-47
2023/03/29 07:02:59;;;;;;;11.15;2.72;;;;;;;;;;6215026;23;20016;-47
2023/03/29 07:05:29;;;;;;;9.87;2.23;;;;;;;;;;6218969;23;20079;-46
2023/03/29 07:07:59;;;;;;;11.93;2.65;;;;;;;;;;6219908;23;20016;-46
2023/03/29 07:10:31;;;;;;;8.43;2.10;;;;;;;;;;6214211;23;20017;-45
2023/03/29 07:12:59;;;;;;;10.07;2.17;;;;;;;;;;6211133;23;20027;-48
2023/03/29 07:15:27;;;;;;;11.23;2.47;;;;;;;;;;6209120;23;20443;-47
2023/03/29 07:17:56;;;;;;;8.40;2.17;;;;;;;;;;6217194;23;20762;-45
2023/03/29 07:20:27;;;;;;;7.45;2.13;;;;;;;;;;6220475;23;20494;-47
2023/03/29 07:22:54;;;;;;;8.90;2.28;;;;;;;;;;6217088;22;20343;-45
2023/03/29 07:25:23;;;;;;;7.78;1.95;;;;;;;;;;6219244;23;20051;-46
2023/03/29 07:27:53;;;;;;;7.00;1.58;;;;;;;;;;6217138;23;20065;-47
2023/03/29 07:30:21;;;;;;;7.77;1.83;;;;;;;;;;6221048;23;20031;-47
2023/03/29 07:32:51;;;;;;;7.97;1.45;;;;;;;;;;6219692;23;20016;-46
2023/03/29 07:35:19;;;;;;;7.18;1.55;;;;;;;;;;6209936;23;20031;-46
2023/03/29 07:37:46;;;;;;;6.78;1.35;;;;;;;;;;6219542;23;20051;-46
2023/03/29 07:40:17;;;;;;;7.43;1.98;;;;;;;;;;6219650;23;20024;-47
2023/03/29 07:42:45;;;;;;;8.03;2.03;;;;;;;;;;6218495;23;20071;-47
2023/03/29 07:45:16;;;;;;;7.07;1.25;;;;;;;;;;6220865;23;20074;-48
2023/03/29 07:47:43;;;;;;;5.28;1.20;;;;;;;;;;6218700;23;20461;-50
2023/03/29 07:50:11;;;;;;;6.53;1.88;;;;;;;;;;6219002;23;20012;-52
2023/03/29 07:52:39;;;;;;;5.20;0.82;;;;;;;;;;6216140;23;20020;-47
2023/03/29 07:55:07;;;;;;;6.63;1.03;;;;;;;;;;6219438;23;20337;-47
2023/03/29 07:57:35;;;;;;;3.83;0.90;;;;;;;;;;6210668;23;20438;-48
2023/03/29 08:00:14;;;;;;;4.38;0.60;;;;;;;;;;6219325;23;20508;-47
2023/03/29 08:02:46;;;;;;;7.10;0.80;;;;;;;;;;6220385;23;20027;-50
2023/03/29 08:05:14;;;;;;;4.18;1.00;;;;;;;;;;6215150;23;20507;-46
2023/03/29 08:07:56;;;;;;;4.23;0.70;;;;;;;;;;6220408;23;20016;-46
2023/03/29 08:10:24;;;;;;;4.70;0.70;;;;;;;;;;6211564;23;20098;-49
2023/03/29 08:12:53;;;;;;;4.63;1.00;;;;;;;;;;6213299;23;20023;-48
2023/03/29 08:15:21;;;;;;;4.43;0.70;;;;;;;;;;6217293;22;20100;-47
2023/03/29 08:17:51;;;;;;;5.18;0.70;;;;;;;;;;6216774;23;20020;-51
2023/03/29 08:20:19;;;;;;;4.30;0.70;;;;;;;;;;6219458;23;20016;-47
2023/03/29 08:22:47;;;;;;;4.93;0.80;;;;;;;;;;6212296;23;20016;-47
2023/03/29 08:25:15;;;;;;;4.45;0.90;;;;;;;;;;6218880;22;20031;-49
2023/03/29 08:27:43;;;;;;;7.70;1.02;;;;;;;;;;6209571;23;20027;-48
2023/03/29 08:30:11;;;;;;;4.13;1.05;;;;;;;;;;6217877;23;20028;-46
2023/03/29 08:32:39;;;;;;;6.20;1.33;;;;;;;;;;6211257;23;20527;-48
2023/03/29 08:35:09;;;;;;;4.05;0.80;;;;;;;;;;6191394;23;20040;-46
2023/03/29 08:37:37;;;;;;;4.68;0.93;;;;;;;;;;6196558;23;20099;-47
2023/03/29 08:40:05;;;;;;;4.30;0.88;;;;;;;;;;6199208;23;21228;-50
2023/03/29 08:42:40;;;;;;;4.47;1.00;;;;;;;;;;6202395;23;20012;-49
2023/03/29 08:45:12;;;;;;;4.27;0.60;;;;;;;;;;6195231;23;20043;-49
2023/03/29 08:47:45;;;;;;;3.72;0.50;;;;;;;;;;6201380;23;20069;-46
2023/03/29 08:50:15;;;;;;;3.95;0.98;;;;;;;;;;6205415;23;20051;-48
2023/03/29 08:52:45;;;;;;;3.83;0.70;;;;;;;;;;6186376;23;20568;-47
2023/03/29 08:55:18;;;;;;;3.33;0.75;;;;;;;;;;6204613;23;20043;-50
2023/03/29 08:57:47;;;;;;;3.27;0.57;;;;;;;;;;6213296;23;20019;-47
2023/03/29 09:00:19;;;;;;;3.20;0.50;;;;;;;;;;6215563;23;20043;-47
2023/03/29 09:02:48;;;;;;;3.60;0.40;;;;;;;;;;6218526;23;20536;-49
2023/03/29 09:05:21;;;;;;;4.13;0.63;;;;;;;;;;6215595;23;20012;-48
2023/03/29 09:07:49;;;;;;;3.70;0.60;;;;;;;;;;6218511;23;20127;-51
2023/03/29 09:10:17;;;;;;;5.57;0.57;;;;;;;;;;6215994;23;20016;-46
2023/03/29 09:12:53;;;;;;;3.20;0.50;;;;;;;;;;6219805;23;20012;-47
2023/03/29 09:15:24;;;;;;;3.50;0.70;;;;;;;;;;6211676;22;20898;-47
2023/03/29 09:17:56;;;;;;;4.57;0.70;;;;;;;;;;6221883;23;20410;-46
2023/03/29 09:20:32;;;;;;;4.35;0.90;;;;;;;;;;6214098;22;20127;-48
2023/03/29 09:23:11;;;;;;;5.47;1.10;;;;;;;;;;6218939;23;20016;-47
2023/03/29 09:25:47;;;;;;;3.80;1.00;;;;;;;;;;6220095;23;20019;-47
2023/03/29 09:28:22;;;;;;;4.43;1.20;;;;;;;;;;6215788;23;20027;-49
2023/03/29 09:30:54;;;;;;;3.78;0.70;;;;;;;;;;6222710;23;20020;-45
2023/03/29 09:33:24;;;;;;;4.78;0.77;;;;;;;;;;6215218;23;20027;-47
2023/03/29 09:35:57;;;;;;;4.60;0.73;;;;;;;;;;6222699;23;20020;-46
2023/03/29 09:38:24;;;;;;;3.97;0.80;;;;;;;;;;6214672;23;20016;-48
2023/03/29 09:40:53;;;;;;;4.35;1.00;;;;;;;;;;6218406;23;20020;-49
2023/03/29 09:43:25;;;;;;;4.68;0.88;;;;;;;;;;6215739;23;20020;-50
2023/03/29 09:45:55;;;;;;;4.05;0.80;;;;;;;;;;6222653;23;20446;-48
2023/03/29 09:48:25;;;;;;;4.43;0.87;;;;;;;;;;6220858;23;20547;-48
2023/03/29 09:50:52;;;;;;;4.60;0.70;;;;;;;;;;6210212;23;20051;-46
2023/03/29 09:53:21;;;;;;;5.28;1.25;;;;;;;;;;6223226;23;20347;-46
2023/03/29 09:55:51;;;;;;;4.45;0.90;;;;;;;;;;6204702;23;20028;-50
2023/03/29 09:58:20;;;;;;;4.05;0.93;;;;;;;;;;6223674;23;20054;-47
2023/03/29 10:00:48;;;;;;;5.27;0.90;;;;;;;;;;6212611;23;20098;-46
2023/03/29 10:03:19;;;;;;;3.90;0.90;;;;;;;;;;6218415;22;20018;-52
2023/03/29 10:05:49;;;;;;;4.32;1.17;;;;;;;;;;6217989;23;20048;-49
2023/03/29 10:08:21;;;;;;;4.25;0.85;;;;;;;;;;6216840;23;20047;-47
2023/03/29 10:10:50;;;;;;;6.35;1.00;;;;;;;;;;6216682;23;20358;-52
2023/03/29 10:13:22;;;;;;;4.40;0.83;;;;;;;;;;6211437;23;20020;-49
2023/03/29 10:16:11;;;;;;;4.20;1.00;;;;;;;;;;6211867;23;20023;-50
2023/03/29 10:18:40;;;;;;;4.50;1.30;;;;;;;;;;6206881;22;20024;-48
2023/03/29 10:21:10;;;;;;;3.90;1.00;;;;;;;;;;6221169;23;20035;-49
2023/03/29 10:23:38;;;;;;;4.32;0.73;;;;;;;;;;6216120;23;20051;-50
2023/03/29 10:26:10;;;;;;;5.07;0.60;;;;;;;;;;6220125;23;20118;-48
2023/03/29 10:28:38;;;;;;;6.18;1.45;;;;;;;;;;6217716;23;20095;-50
2023/03/29 10:31:07;;;;;;;3.90;0.90;;;;;;;;;;6216438;22;20016;-46
2023/03/29 10:33:35;;;;;;;4.43;1.10;;;;;;;;;;6215590;23;20020;-47
2023/03/29 10:36:04;;;;;;;5.28;1.35;;;;;;;;;;6217002;23;20454;-47
2023/03/29 10:38:35;;;;;;;4.73;1.20;;;;;;;;;;6220515;23;20020;-47
2023/03/29 10:41:04;;;;;;;5.10;1.25;;;;;;;;;;6214878;23;20055;-47
2023/03/29 10:43:37;;;;;;;5.07;1.38;;;;;;;;;;6222432;23;20047;-46
2023/03/29 10:46:06;;;;;;;5.72;1.35;;;;;;;;;;6217988;23;20051;-46
2023/03/29 10:48:35;;;;;;;4.60;0.93;;;;;;;;;;6218939;23;20020;-46
2023/03/29 10:51:04;;;;;;;5.20;1.40;;;;;;;;;;6206514;23;20566;-46
2023/03/29 10:53:33;;;;;;;4.80;1.40;;;;;;;;;;6218108;23;20054;-47
2023/03/29 10:56:08;;;;;;;6.35;1.23;;;;;;;;;;6219305;23;20012;-47
2023/03/29 10:58:43;;;;;;;4.53;0.80;;;;;;;;;;6217870;23;20454;-48
2023/03/29 11:01:14;;;;;;;4.72;0.93;;;;;;;;;;6220459;23;20043;-50
2023/03/29 11:03:54;;;;;;;5.40;1.30;;;;;;;;;;6217942;23;20031;-45
2023/03/29 11:06:26;;;;;;;4.68;1.10;;;;;;;;;;6219591;23;20020;-46
2023/03/29 11:08:57;;;;;;;4.82;0.88;;;;;;;;;;6212137;23;20012;-50
2023/03/29 11:11:36;;;;;;;5.07;1.13;;;;;;;;;;6222049;23;20052;-50
2023/03/29 11:14:08;;;;;;;5.35;1.30;;;;;;;;;;6220328;23;20661;-49
2023/03/29 11:16:41;;;;;;;5.43;1.37;;;;;;;;;;6213618;23;20397;-48
2023/03/29 11:19:29;;;;;;;5.25;1.23;;;;;;;;;;6219216;22;20530;-47
2023/03/29 11:22:01;;;;;;;15.77;2.22;;;;;;;;;;6212480;23;20350;-45
2023/03/29 11:24:38;;;;;;;7.25;1.60;;;;;;;;;;6212756;23;20020;-46
2023/03/29 11:27:12;;;;;;;3.75;0.60;;;;;;;;;;6216319;23;20012;-52
2023/03/29 11:29:43;;;;;;;8.67;1.60;;;;;;;;;;6217844;23;20397;-45
2023/03/29 11:32:14;;;;;;;8.70;1.38;;;;;;;;;;6219220;23;20447;-46
2023/03/29 11:34:49;;;;;;;5.53;1.52;;;;;;;;;;6211186;23;20048;-48
2023/03/29 11:37:20;;;;;;;5.60;1.35;;;;;;;;;;6213425;23;20519;-49
2023/03/29 11:39:53;;;;;;;4.60;0.95;;;;;;;;;;6204059;23;20401;-47
2023/03/29 11:42:23;;;;;;;8.07;1.50;;;;;;;;;;6216569;23;20043;-47
2023/03/29 11:44:54;;;;;;;6.72;1.48;;;;;;;;;;6213984;23;20500;-45
2023/03/29 11:47:23;;;;;;;6.85;1.17;;;;;;;;;;6213008;23;20602;-47
2023/03/29 11:49:53;;;;;;;10.52;1.50;;;;;;;;;;6218337;23;20359;-45
2023/03/29 11:52:22;;;;;;;10.18;1.60;;;;;;;;;;6214109;23;20326;-48
2023/03/29 11:54:52;;;;;;;7.53;1.40;;;;;;;;;;6219604;23;20020;-49
2023/03/29 11:57:21;;;;;;;7.30;1.55;;;;;;;;;;6206795;23;20550;-47
2023/03/29 11:59:52;;;;;;;7.18;1.58;;;;;;;;;;6215856;23;20020;-49
2023/03/29 12:02:24;;;;;;;6.95;1.52;;;;;;;;;;6213739;23;20012;-46
2023/03/29 12:04:54;;;;;;;7.97;1.67;;;;;;;;;;6216839;23;20020;-48
2023/03/29 12:07:25;;;;;;;9.93;1.47;;;;;;;;;;6210746;23;20017;-45
2023/03/29 12:09:56;;;;;;;7.15;1.85;;;;;;;;;;6221350;23;20186;-47
2023/03/29 12:12:26;;;;;;;4.70;1.02;;;;;;;;;;6156081;23;20112;-49
2023/03/29 12:14:58;;;;;;;4.68;0.90;;;;;;;;;;6150661;23;20442;-46
2023/03/29 12:17:30;;;;;;;10.63;0.93;;;;;;;;;;6156398;23;20013;-47
2023/03/29 12:20:04;;;;;;;7.90;1.40;;;;;;;;;;6152384;23;20373;-47
2023/03/29 12:22:32;;;;;;;5.70;1.15;;;;;;;;;;6161418;23;20013;-48
2023/03/29 12:25:00;;;;;;;6.55;1.25;;;;;;;;;;6154760;23;20096;-48
2023/03/29 12:27:29;;;;;;;4.85;1.20;;;;;;;;;;6159976;23;20013;-51
2023/03/29 12:30:12;;;;;;;7.15;0.90;;;;;;;;;;6155324;23;20029;-50
2023/03/29 12:32:47;;;;;;;6.37;1.60;;;;;;;;;;6156062;23;20021;-51
2023/03/29 12:35:20;;;;;;;10.27;1.02;;;;;;;;;;6156307;23;20071;-49
2023/03/29 12:37:55;;;;;;;4.90;0.90;;;;;;;;;;6151997;23;20013;-48
2023/03/29 12:40:27;;;;;;;5.50;1.30;;;;;;;;;;6161132;23;20021;-49
2023/03/29 12:42:59;;;;;;;5.55;1.40;;;;;;;;;;6159923;23;20021;-48
2023/03/29 12:45:31;;;;;;;4.93;0.63;;;;;;;;;;6161174;23;20017;-47
2023/03/29 12:48:01;;;;;;;7.70;1.17;;;;;;;;;;6161670;23;20048;-51
2023/03/29 12:50:33;;;;;;;4.07;0.77;;;;;;;;;;6151548;23;20021;-47
2023/03/29 12:53:03;;;;;;;5.57;0.90;;;;;;;;;;6159744;23;20017;-47
2023/03/29 12:55:32;;;;;;;5.78;0.82;;;;;;;;;;6154454;23;20013;-48
2023/03/29 12:58:03;;;;;;;4.20;0.40;;;;;;;;;;6163813;23;20013;-48
2023/03/29 13:00:32;;;;;;;5.55;0.80;;;;;;;;;;6155387;23;20020;-49
2023/03/29 13:03:04;;;;;;;5.18;0.85;;;;;;;;;;6163501;23;20021;-48
2023/03/29 13:05:35;;;;;;;7.53;1.27;;;;;;;;;;6154794;23;20017;-49
2023/03/29 13:08:21;;;;;;;5.15;1.20;;;;;;;;;;6157126;23;20040;-51
2023/03/29 13:10:52;;;;;;;7.83;1.30;;;;;;;;;;6184466;23;20282;-49
2023/03/29 13:13:23;;;;;;;7.35;1.45;;;;;;;;;;6209612;23;20016;-47
2023/03/29 13:15:51;;;;;;;5.55;1.13;;;;;;;;;;6220443;23;20023;-50
2023/03/29 13:18:30;;;;;;;6.72;1.90;;;;;;;;;;6216172;22;20016;-48
2023/03/29 13:21:03;;;;;;;5.00;1.20;;;;;;;;;;6218789;22;20450;-48
2023/03/29 13:23:36;;;;;;;10.93;1.20;;;;;;;;;;6208779;23;20477;-48
2023/03/29 13:26:20;;;;;;;8.60;1.15;;;;;;;;;;6220088;23;20054;-49
2023/03/29 13:28:57;;;;;;;5.18;1.30;;;;;;;;;;6220730;23;20470;-47
2023/03/29 13:31:33;;;;;;;5.20;0.80;;;;;;;;;;6212771;23;20130;-53
2023/03/29 13:34:05;;;;;;;4.63;1.25;;;;;;;;;;6224019;23;20154;-49
2023/03/29 13:36:43;;;;;;;5.77;1.07;;;;;;;;;;6215359;22;20442;-49
2023/03/29 13:39:15;;;;;;;4.28;0.75;;;;;;;;;;6225685;23;20086;-49
2023/03/29 13:41:46;;;;;;;3.28;0.65;;;;;;;;;;6207755;23;20039;-47
2023/03/29 13:44:26;;;;;;;6.40;1.00;;;;;;;;;;6220911;23;20615;-50
2023/03/29 13:47:05;;;;;;;3.92;0.70;;;;;;;;;;6207989;23;20055;-47
2023/03/29 13:49:35;;;;;;;5.20;0.53;;;;;;;;;;6216494;23;20672;-48
2023/03/29 13:52:14;;;;;;;6.20;0.90;;;;;;;;;;6216738;23;20019;-50
2023/03/29 13:54:46;;;;;;;7.60;1.17;;;;;;;;;;6207276;22;20102;-47
2023/03/29 13:57:16;;;;;;;3.90;0.75;;;;;;;;;;6216241;23;20391;-48
2023/03/29 13:59:50;;;;;;;5.57;0.80;;;;;;;;;;6216436;23;20412;-48
2023/03/29 14:02:21;;;;;;;4.07;0.57;;;;;;;;;;6218604;23;20047;-48
2023/03/29 14:04:52;;;;;;;4.78;0.65;;;;;;;;;;6215999;23;20039;-49
2023/03/29 14:07:25;;;;;;;3.58;0.77;;;;;;;;;;6220894;23;20017;-49
2023/03/29 14:09:54;;;;;;;3.90;0.63;;;;;;;;;;6220499;22;20012;-47
2023/03/29 14:12:22;;;;;;;4.95;0.60;;;;;;;;;;6216213;23;20046;-47
2023/03/29 14:14:52;;;;;;;2.60;0.43;;;;;;;;;;6210314;23;20031;-49
2023/03/29 14:17:26;;;;;;;3.17;0.50;;;;;;;;;;6217047;23;20074;-47
2023/03/29 14:19:58;;;;;;;2.85;0.50;;;;;;;;;;6212065;23;20163;-46
2023/03/29 14:22:29;;;;;;;3.25;0.40;;;;;;;;;;6221162;23;20016;-48
2023/03/29 14:25:00;;;;;;;3.95;0.30;;;;;;;;;;6218192;23;20422;-46
2023/03/29 14:27:29;;;;;;;3.27;0.30;;;;;;;;;;6221394;23;20020;-48
2023/03/29 14:29:57;;;;;;;3.50;0.70;;;;;;;;;;6218806;23;20043;-48
2023/03/29 14:32:28;;;;;;;4.15;0.55;;;;;;;;;;6214644;23;20101;-48
2023/03/29 14:34:57;;;;;;;4.90;0.50;;;;;;;;;;6211750;22;20358;-50
2023/03/29 14:37:26;;;;;;;4.85;1.00;;;;;;;;;;6217061;23;20023;-49
2023/03/29 14:39:55;;;;;;;4.70;0.70;;;;;;;;;;6215326;23;20062;-48
2023/03/29 14:42:25;;;;;;;4.05;0.60;;;;;;;;;;6218800;23;20383;-49
2023/03/29 14:44:57;;;;;;;7.07;0.75;;;;;;;;;;6216069;23;20099;-50
2023/03/29 14:47:26;;;;;;;7.72;0.95;;;;;;;;;;6216042;23;20048;-52
2023/03/29 14:49:57;;;;;;;3.70;0.57;;;;;;;;;;6216873;23;20023;-49
2023/03/29 14:52:27;;;;;;;5.97;0.87;;;;;;;;;;6215398;23;20569;-48
2023/03/29 14:54:56;;;;;;;6.07;0.70;;;;;;;;;;6217783;22;20239;-50
2023/03/29 14:57:27;;;;;;;4.65;0.50;;;;;;;;;;6216431;23;20012;-47